TimeMDT,TemperatureF,Dew PointF,Humidity,Sea Level PressureIn,VisibilityMPH,Wind Direction,Wind SpeedMPH,Gust SpeedMPH,PrecipitationIn,Events,Conditions,WindDirDegrees,DateUTC
12:56 AM,46.0,43.0,89,30.12,-9999.0,NW,3.5,-,N/A,,Unknown,310,2013-08-28 06:56:00
1:56 AM,46.9,44.1,90,30.10,-9999.0,Calm,Calm,-,N/A,,Unknown,0,2013-08-28 07:56:00
2:56 AM,46.9,44.1,90,30.10,-9999.0,Calm,Calm,-,N/A,,Unknown,0,2013-08-28 08:56:00
3:56 AM,44.1,42.1,93,30.10,-9999.0,Calm,Calm,-,N/A,,Unknown,0,2013-08-28 09:56:00
4:56 AM,43.0,42.1,97,30.11,-9999.0,Calm,Calm,-,N/A,,Unknown,0,2013-08-28 10:56:00
5:56 AM,43.0,41.0,93,30.14,-9999.0,Calm,Calm,-,N/A,,Unknown,0,2013-08-28 11:56:00
6:56 AM,42.1,41.0,96,30.15,-9999.0,Calm,Calm,-,N/A,,Unknown,0,2013-08-28 12:56:00
7:56 AM,46.0,43.0,89,30.15,-9999.0,Calm,Calm,-,N/A,,Unknown,0,2013-08-28 13:56:00
8:56 AM,51.1,46.9,86,30.14,-9999.0,Calm,Calm,-,N/A,,Unknown,0,2013-08-28 14:56:00
9:56 AM,57.0,50.0,77,30.15,-9999.0,Calm,Calm,-,N/A,,Unknown,0,2013-08-28 15:56:00
10:56 AM,57.9,52.0,81,30.17,-9999.0,Variable,4.6,-,0.01,,Unknown,0,2013-08-28 16:56:00
11:56 AM,66.0,50.0,56,30.14,-9999.0,Calm,Calm,-,N/A,,Unknown,0,2013-08-28 17:56:00
12:56 PM,66.9,48.9,52,30.12,-9999.0,Variable,4.6,-,N/A,,Unknown,0,2013-08-28 18:56:00
1:56 PM,71.1,48.9,45,30.09,-9999.0,Variable,3.5,-,N/A,,Unknown,0,2013-08-28 19:56:00
2:56 PM,69.1,48.9,49,30.11,-9999.0,Variable,5.8,-,N/A,,Unknown,0,2013-08-28 20:56:00
3:56 PM,66.9,46.9,49,30.12,-9999.0,Variable,5.8,-,N/A,,Unknown,0,2013-08-28 21:56:00
4:56 PM,66.9,46.0,47,30.13,-9999.0,Variable,4.6,-,N/A,,Unknown,0,2013-08-28 22:56:00
5:56 PM,64.9,46.9,52,30.16,-9999.0,Variable,4.6,-,N/A,,Unknown,0,2013-08-28 23:56:00
6:56 PM,57.0,46.9,69,30.25,-9999.0,West,10.4,20.7,N/A,,Unknown,280,2013-08-29 00:56:00
7:56 PM,53.1,51.1,93,30.21,-9999.0,Calm,Calm,-,0.01,,Unknown,0,2013-08-29 01:56:00
8:56 PM,48.9,46.9,93,30.22,-9999.0,Calm,Calm,-,N/A,,Unknown,0,2013-08-29 02:56:00
9:56 PM,46.9,45.0,93,30.21,-9999.0,Calm,Calm,-,N/A,,Unknown,0,2013-08-29 03:56:00
10:56 PM,45.0,44.1,97,30.23,-9999.0,NW,3.5,-,N/A,,Unknown,310,2013-08-29 04:56:00
11:56 PM,44.1,43.0,96,30.20,-9999.0,Calm,Calm,-,N/A,,Unknown,0,2013-08-29 05:56:00